createdAt,value
2019-03-27T00:03:15.710Z,3.87
2019-03-27T00:05:45.577Z,3.98
2019-03-27T00:08:15.536Z,4.08
2019-03-27T00:10:46.098Z,7.15
2019-03-27T00:13:15.976Z,4.33
2019-03-27T00:15:45.865Z,6.15
2019-03-27T00:18:15.638Z,5.90
2019-03-27T00:20:45.657Z,7.08
2019-03-27T00:23:15.713Z,3.83
2019-03-27T00:25:45.607Z,5.10
2019-03-27T00:28:15.773Z,4.62
2019-03-27T00:30:50.706Z,4.20
2019-03-27T00:33:21.047Z,5.12
2019-03-27T00:35:51.250Z,5.97
2019-03-27T00:40:49.950Z,3.60
2019-03-27T00:43:19.929Z,4.65
2019-03-27T00:45:49.689Z,5.80
2019-03-27T00:48:19.703Z,4.35
2019-03-27T00:50:49.488Z,7.58
2019-03-27T00:53:19.320Z,5.22
2019-03-27T00:55:49.182Z,5.87
2019-03-27T00:58:19.000Z,4.55
2019-03-27T01:01:08.480Z,4.78
2019-03-27T01:03:38.524Z,4.60
2019-03-27T01:06:08.771Z,4.05
2019-03-27T01:11:07.876Z,3.50
2019-03-27T01:13:37.672Z,3.33
2019-03-27T01:16:08.250Z,5.10
2019-03-27T01:18:38.346Z,4.95
2019-03-27T01:21:08.908Z,3.67
2019-03-27T01:23:38.746Z,3.77
2019-03-27T01:26:08.693Z,3.55
2019-03-27T01:28:38.504Z,4.33
2019-03-27T01:31:08.530Z,4.80
2019-03-27T01:33:38.529Z,4.65
2019-03-27T01:36:08.541Z,4.08
2019-03-27T01:38:38.516Z,4.37
2019-03-27T01:41:08.574Z,4.92
2019-03-27T01:43:38.507Z,5.25
2019-03-27T01:46:08.757Z,4.87
2019-03-27T01:51:07.310Z,4.42
2019-03-27T01:53:37.397Z,4.70
2019-03-27T01:56:07.488Z,5.00
2019-03-27T01:58:37.226Z,4.37
2019-03-27T02:01:07.592Z,3.62
2019-03-27T02:03:37.437Z,4.83
2019-03-27T02:06:07.335Z,4.85
2019-03-27T02:08:37.164Z,4.50
2019-03-27T02:11:07.210Z,5.28
2019-03-27T02:13:37.073Z,4.37
2019-03-27T02:16:07.575Z,5.45
2019-03-27T02:18:37.471Z,4.12
2019-03-27T02:21:07.280Z,5.08
2019-03-27T02:23:37.264Z,5.95
2019-03-27T02:26:07.219Z,5.03
2019-03-27T02:28:37.398Z,4.08
2019-03-27T02:31:07.324Z,3.52
2019-03-27T02:33:37.172Z,5.22
2019-03-27T02:36:07.570Z,4.42
2019-03-27T02:38:37.751Z,3.33
2019-03-27T02:43:36.453Z,4.00
2019-03-27T02:46:23.333Z,5.62
2019-03-27T02:48:38.022Z,4.08
2019-03-27T02:51:07.936Z,5.70
2019-03-27T02:53:37.784Z,5.30
2019-03-27T02:56:07.766Z,5.55
2019-03-27T02:58:37.667Z,4.78
2019-03-27T03:01:07.571Z,5.20
2019-03-27T03:03:37.396Z,4.97
2019-03-27T03:06:07.261Z,5.08
2019-03-27T03:08:37.199Z,4.03
2019-03-27T03:11:07.222Z,6.12
2019-03-27T03:13:37.088Z,6.47
2019-03-27T03:16:06.841Z,6.50
2019-03-27T03:18:36.865Z,6.45
2019-03-27T03:21:06.799Z,5.65
2019-03-27T03:23:39.783Z,5.87
2019-03-27T03:26:09.670Z,6.15
2019-03-27T03:28:40.177Z,6.80
2019-03-27T03:31:11.386Z,7.83
2019-03-27T03:33:44.152Z,8.38
2019-03-27T03:36:13.937Z,7.50
2019-03-27T03:38:44.189Z,7.67
2019-03-27T03:43:42.617Z,9.73
2019-03-27T03:46:12.539Z,10.28
2019-03-27T03:48:42.447Z,11.60
2019-03-27T03:51:12.540Z,10.18
2019-03-27T03:53:42.386Z,11.00
2019-03-27T03:56:14.928Z,10.35
2019-03-27T03:58:46.942Z,8.58
2019-03-27T04:01:18.033Z,11.85
2019-03-27T04:03:49.369Z,8.83
2019-03-27T04:06:19.733Z,11.00
2019-03-27T04:11:18.925Z,11.83
2019-03-27T04:16:17.827Z,11.05
2019-03-27T04:21:16.634Z,9.73
2019-03-27T04:23:46.591Z,11.25
2019-03-27T04:26:16.478Z,12.25
2019-03-27T04:28:46.483Z,9.88
2019-03-27T04:31:16.457Z,11.80
2019-03-27T04:33:46.590Z,9.95
2019-03-27T04:36:16.639Z,11.08
2019-03-27T04:38:46.586Z,10.75
2019-03-27T04:41:16.565Z,11.08
2019-03-27T04:43:46.957Z,12.25
2019-03-27T04:46:16.939Z,9.75
2019-03-27T04:48:47.016Z,11.50
2019-03-27T04:51:16.931Z,10.68
2019-03-27T04:53:46.939Z,9.83
2019-03-27T04:56:16.826Z,10.68
2019-03-27T04:58:47.173Z,12.03
2019-03-27T05:01:18.219Z,10.03
2019-03-27T05:03:48.492Z,10.28
2019-03-27T05:06:18.510Z,10.20
2019-03-27T05:08:48.387Z,9.00
2019-03-27T05:11:18.397Z,8.80
2019-03-27T05:13:48.156Z,9.18
2019-03-27T05:16:17.967Z,8.93
2019-03-27T05:18:47.733Z,9.33
2019-03-27T05:21:17.409Z,10.60
2019-03-27T05:23:47.118Z,9.05
2019-03-27T05:26:17.030Z,9.78
2019-03-27T05:28:47.117Z,10.65
2019-03-27T05:31:18.560Z,10.70
2019-03-27T05:33:48.711Z,9.35
2019-03-27T05:36:18.690Z,10.28
2019-03-27T05:38:48.673Z,12.82
2019-03-27T05:41:18.520Z,10.00
2019-03-27T05:43:48.466Z,8.88
2019-03-27T05:46:18.762Z,10.10
2019-03-27T05:48:48.880Z,10.38
2019-03-27T05:51:18.899Z,11.25
2019-03-27T05:53:49.029Z,11.12
2019-03-27T05:56:18.998Z,11.12
2019-03-27T05:58:48.925Z,11.18
2019-03-27T06:01:19.109Z,9.53
2019-03-27T06:06:18.105Z,9.08
2019-03-27T06:11:19.917Z,10.53
2019-03-27T06:13:50.311Z,8.88
2019-03-27T06:16:20.572Z,8.45
2019-03-27T06:21:19.068Z,8.95
2019-03-27T06:23:59.523Z,10.10
2019-03-27T06:26:29.542Z,9.23
2019-03-27T06:28:59.558Z,9.98
2019-03-27T06:31:29.616Z,11.03
2019-03-27T06:33:59.724Z,10.90
2019-03-27T06:36:29.642Z,13.38
2019-03-27T06:38:59.447Z,10.90
2019-03-27T06:41:29.208Z,10.40
2019-03-27T06:43:59.121Z,9.25
2019-03-27T06:46:28.703Z,11.68
2019-03-27T06:48:59.975Z,14.73
2019-03-27T06:51:39.851Z,14.53
2019-03-27T06:54:01.416Z,11.15
2019-03-27T06:56:31.309Z,12.53
2019-03-27T06:59:01.221Z,12.47
2019-03-27T07:01:31.292Z,12.40
2019-03-27T07:06:31.289Z,11.48
2019-03-27T07:09:01.035Z,10.60
2019-03-27T07:11:30.605Z,12.93
2019-03-27T07:14:00.588Z,13.13
2019-03-27T07:16:30.472Z,14.40
2019-03-27T07:19:00.351Z,16.10
2019-03-27T07:21:30.419Z,12.28
2019-03-27T07:24:02.540Z,13.58
2019-03-27T07:26:32.942Z,12.80
2019-03-27T07:29:02.859Z,14.23
2019-03-27T07:31:32.800Z,11.95
2019-03-27T07:34:02.648Z,12.60
2019-03-27T07:36:32.599Z,13.58
2019-03-27T07:39:11.024Z,14.60
2019-03-27T07:41:33.970Z,12.28
2019-03-27T07:44:03.781Z,13.60
2019-03-27T07:46:33.695Z,11.48
2019-03-27T07:49:03.573Z,11.80
2019-03-27T07:51:33.762Z,12.25
2019-03-27T07:56:32.393Z,10.80
2019-03-27T07:59:02.586Z,12.18
2019-03-27T08:04:01.255Z,9.15
2019-03-27T08:06:31.127Z,10.32
2019-03-27T08:09:00.946Z,10.55
2019-03-27T08:11:30.900Z,9.40
2019-03-27T08:14:00.952Z,9.05
2019-03-27T08:16:30.996Z,7.17
2019-03-27T08:19:07.688Z,8.25
2019-03-27T08:21:34.206Z,8.20
2019-03-27T08:24:09.114Z,6.97
2019-03-27T08:26:39.331Z,7.50
2019-03-27T08:31:40.527Z,6.62
2019-03-27T08:34:10.307Z,5.17
2019-03-27T08:36:40.329Z,6.08
2019-03-27T08:39:10.572Z,6.92
2019-03-27T08:44:09.605Z,6.70
2019-03-27T08:46:40.298Z,6.17
2019-03-27T08:49:21.138Z,7.05
2019-03-27T08:51:41.988Z,6.25
2019-03-27T08:54:12.348Z,5.90
2019-03-27T08:56:42.111Z,4.83
2019-03-27T08:59:12.040Z,7.60
2019-03-27T09:01:41.928Z,4.70
2019-03-27T09:04:12.983Z,4.78
2019-03-27T09:06:44.263Z,7.87
2019-03-27T09:09:18.846Z,5.67
2019-03-27T09:11:49.135Z,5.37
2019-03-27T09:16:47.957Z,5.75
2019-03-27T09:19:18.338Z,5.17
2019-03-27T09:21:48.353Z,6.20
2019-03-27T09:24:19.539Z,5.55
2019-03-27T09:26:51.871Z,7.05
2019-03-27T09:29:22.163Z,5.17
2019-03-27T09:34:23.047Z,5.65
2019-03-27T09:36:58.509Z,5.58
2019-03-27T09:39:29.298Z,6.78
2019-03-27T09:41:59.426Z,5.92
2019-03-27T09:44:29.493Z,7.05
2019-03-27T09:46:59.661Z,4.85
2019-03-27T09:51:59.000Z,4.25
2019-03-27T09:54:31.799Z,5.47
2019-03-27T09:57:05.098Z,4.92
2019-03-27T09:59:43.599Z,7.42
2019-03-27T10:02:13.217Z,5.20
2019-03-27T10:04:42.962Z,3.90
2019-03-27T10:07:12.641Z,4.92
2019-03-27T10:09:42.359Z,5.33
2019-03-27T10:12:12.312Z,4.90
2019-03-27T10:14:42.242Z,4.17
2019-03-27T10:17:13.646Z,5.22
2019-03-27T10:19:43.588Z,4.50
2019-03-27T10:22:16.619Z,5.50
2019-03-27T10:24:46.713Z,5.15
2019-03-27T10:27:16.610Z,5.80
2019-03-27T10:29:46.728Z,5.22
2019-03-27T10:32:16.848Z,5.30
2019-03-27T10:34:46.774Z,7.08
2019-03-27T10:37:16.824Z,5.20
2019-03-27T10:39:47.057Z,4.47
2019-03-27T10:44:45.845Z,4.47
2019-03-27T10:47:15.863Z,6.08
2019-03-27T10:49:46.150Z,4.97
2019-03-27T10:52:17.437Z,5.15
2019-03-27T10:54:47.466Z,5.83
2019-03-27T10:57:17.538Z,4.08
2019-03-27T10:59:48.069Z,5.05
2019-03-27T11:02:18.123Z,4.95
2019-03-27T11:04:48.195Z,5.00
2019-03-27T11:07:18.315Z,4.83
2019-03-27T11:12:17.131Z,4.97
2019-03-27T11:14:47.517Z,4.45
2019-03-27T11:17:17.561Z,5.10
2019-03-27T11:19:47.713Z,6.15
2019-03-27T11:22:17.710Z,5.80
2019-03-27T11:24:47.916Z,4.67
2019-03-27T11:29:46.876Z,4.90
2019-03-27T11:34:45.972Z,4.95
2019-03-27T11:37:16.055Z,4.90
2019-03-27T11:39:46.090Z,5.90
2019-03-27T11:42:16.189Z,4.97
2019-03-27T11:44:46.212Z,5.97
2019-03-27T11:47:16.122Z,5.17
2019-03-27T11:49:47.095Z,7.15
2019-03-27T11:52:19.002Z,7.80
2019-03-27T11:55:01.265Z,7.08
2019-03-27T11:57:31.327Z,8.90
2019-03-27T12:00:01.579Z,7.33
2019-03-27T12:05:01.139Z,6.35
2019-03-27T12:07:31.447Z,8.30
2019-03-27T12:10:01.340Z,6.65
2019-03-27T12:12:31.351Z,8.10
2019-03-27T12:15:01.036Z,7.20
2019-03-27T12:17:30.901Z,6.10
2019-03-27T12:20:01.050Z,6.28
2019-03-27T12:24:59.860Z,6.67
2019-03-27T12:27:29.806Z,6.53
2019-03-27T12:29:59.566Z,6.03
2019-03-27T12:32:29.530Z,7.53
2019-03-27T12:34:59.173Z,6.50
2019-03-27T12:37:29.133Z,4.90
2019-03-27T12:39:58.874Z,5.55
2019-03-27T12:42:28.681Z,7.08
2019-03-27T12:45:01.610Z,6.05
2019-03-27T12:47:30.078Z,5.53
2019-03-27T12:49:59.864Z,5.83
2019-03-27T12:52:29.805Z,4.50
2019-03-27T12:54:59.686Z,4.97
2019-03-27T12:57:29.629Z,4.60
2019-03-27T12:59:59.565Z,3.90
2019-03-27T13:02:29.558Z,5.37
2019-03-27T13:04:59.381Z,4.75
2019-03-27T13:07:29.409Z,3.95
2019-03-27T13:09:59.286Z,4.72
2019-03-27T13:12:29.088Z,5.62
2019-03-27T13:14:58.978Z,6.33
2019-03-27T13:17:28.993Z,5.30
2019-03-27T13:19:58.928Z,5.80
2019-03-27T13:22:28.844Z,5.42
2019-03-27T13:24:58.701Z,5.65
2019-03-27T13:27:28.776Z,7.10
2019-03-27T13:29:58.433Z,5.87
2019-03-27T13:32:28.253Z,4.85
2019-03-27T13:34:58.057Z,6.17
2019-03-27T13:37:27.820Z,6.25
2019-03-27T13:39:59.925Z,4.40
2019-03-27T13:42:29.150Z,5.60
2019-03-27T13:44:59.102Z,4.03
2019-03-27T13:47:29.063Z,4.45
2019-03-27T13:49:58.932Z,4.95
2019-03-27T13:52:28.993Z,5.70
2019-03-27T13:57:27.292Z,4.83
2019-03-27T13:59:57.100Z,4.22
2019-03-27T14:02:27.001Z,4.92
2019-03-27T14:04:56.938Z,2.90
2019-03-27T14:07:26.888Z,2.87
2019-03-27T14:09:56.759Z,4.78
2019-03-27T14:12:26.545Z,3.58
2019-03-27T14:14:56.255Z,4.05
2019-03-27T14:17:26.308Z,3.90
2019-03-27T14:19:56.123Z,3.65
2019-03-27T14:22:25.863Z,5.12
2019-03-27T14:24:55.722Z,3.15
2019-03-27T14:27:25.874Z,4.47
2019-03-27T14:32:26.443Z,3.87
2019-03-27T14:34:56.410Z,3.80
2019-03-27T14:37:26.213Z,2.62
2019-03-27T14:39:55.913Z,4.37
2019-03-27T14:42:25.799Z,2.72
2019-03-27T14:44:55.590Z,2.92
2019-03-27T14:47:25.394Z,3.77
2019-03-27T14:49:55.061Z,3.55
2019-03-27T14:52:25.100Z,3.85
2019-03-27T14:54:54.930Z,4.42
2019-03-27T14:57:24.780Z,4.37
2019-03-27T14:59:54.619Z,4.78
2019-03-27T15:02:24.472Z,4.55
2019-03-27T15:04:54.624Z,5.53
2019-03-27T15:07:24.630Z,4.65
2019-03-27T15:09:57.351Z,4.42
2019-03-27T15:12:27.406Z,5.35
2019-03-27T15:14:57.053Z,4.12
2019-03-27T15:17:26.849Z,4.00
2019-03-27T15:19:56.699Z,5.37
2019-03-27T15:22:26.457Z,3.65
2019-03-27T15:24:56.506Z,4.28
2019-03-27T15:27:26.687Z,4.15
2019-03-27T15:32:25.282Z,5.60
2019-03-27T15:34:55.274Z,5.85
2019-03-27T15:37:25.130Z,4.78
2019-03-27T15:39:55.107Z,4.50
2019-03-27T15:42:25.612Z,4.67
2019-03-27T15:44:55.704Z,4.33
2019-03-27T15:47:25.715Z,4.58
2019-03-27T15:49:55.896Z,5.00
2019-03-27T15:54:56.621Z,4.85
2019-03-27T15:57:27.388Z,4.40
2019-03-27T15:59:59.928Z,5.90
2019-03-27T16:02:30.251Z,4.80
2019-03-27T16:07:31.361Z,4.78
2019-03-27T16:10:01.292Z,4.22
2019-03-27T16:12:31.139Z,5.28
2019-03-27T16:15:01.324Z,5.90
2019-03-27T16:20:00.355Z,4.72
2019-03-27T16:24:59.066Z,4.53
2019-03-27T16:27:28.807Z,4.83
2019-03-27T16:30:00.630Z,4.35
2019-03-27T16:32:31.435Z,5.60
2019-03-27T16:35:01.607Z,3.92
2019-03-27T16:37:32.263Z,4.85
2019-03-27T16:40:02.114Z,5.25
2019-03-27T16:42:32.841Z,3.52
2019-03-27T16:45:03.382Z,4.78
2019-03-27T16:47:33.841Z,4.28
2019-03-27T16:50:05.921Z,4.85
2019-03-27T16:52:36.591Z,5.45
2019-03-27T16:55:08.333Z,5.42
2019-03-27T16:57:39.236Z,5.30
2019-03-27T17:00:10.684Z,6.28
2019-03-27T17:02:40.714Z,5.65
2019-03-27T17:05:10.587Z,5.75
2019-03-27T17:07:40.941Z,4.80
2019-03-27T17:10:11.827Z,6.15
2019-03-27T17:12:41.592Z,7.90
2019-03-27T17:15:11.525Z,7.62
2019-03-27T17:17:49.750Z,7.47
2019-03-27T17:20:20.143Z,6.90
2019-03-27T17:22:57.746Z,8.68
2019-03-27T17:25:38.407Z,5.97
2019-03-27T17:28:20.535Z,6.25
2019-03-27T17:30:50.662Z,6.47
2019-03-27T17:33:20.767Z,6.70
2019-03-27T17:35:50.718Z,7.62
2019-03-27T17:38:20.943Z,7.22
2019-03-27T17:40:52.442Z,6.45
2019-03-27T17:43:23.485Z,6.55
2019-03-27T17:45:53.934Z,8.60
2019-03-27T17:48:24.321Z,7.35
2019-03-27T17:50:55.167Z,6.97
2019-03-27T17:53:31.744Z,7.60
2019-03-27T17:55:57.443Z,6.65
2019-03-27T17:58:27.123Z,6.45
2019-03-27T18:01:01.085Z,7.30
2019-03-27T18:03:33.251Z,8.08
2019-03-27T18:06:03.579Z,7.85
2019-03-27T18:11:01.704Z,9.58
2019-03-27T18:13:31.655Z,7.40
2019-03-27T18:16:01.967Z,7.40
2019-03-27T18:18:32.151Z,6.80
2019-03-27T18:21:03.886Z,8.43
2019-03-27T18:23:45.128Z,6.22
2019-03-27T18:26:05.208Z,5.97
2019-03-27T18:28:35.316Z,5.70
2019-03-27T18:31:05.261Z,5.22
2019-03-27T18:33:35.042Z,5.33
2019-03-27T18:36:04.863Z,6.22
2019-03-27T18:38:34.535Z,6.83
2019-03-27T18:41:04.080Z,7.08
2019-03-27T18:43:33.777Z,6.10
2019-03-27T18:46:03.613Z,6.83
2019-03-27T18:48:33.363Z,6.25
2019-03-27T18:51:03.279Z,5.83
2019-03-27T18:53:33.138Z,6.00
2019-03-27T18:56:03.259Z,6.20
2019-03-27T19:01:01.472Z,7.10
2019-03-27T19:03:31.165Z,7.75
2019-03-27T19:06:01.050Z,6.90
2019-03-27T19:08:30.818Z,5.78
2019-03-27T19:11:00.626Z,4.85
2019-03-27T19:13:30.471Z,7.47
2019-03-27T19:16:31.994Z,6.62
2019-03-27T19:19:02.753Z,7.12
2019-03-27T19:21:32.579Z,7.40
2019-03-27T19:24:13.324Z,5.70
2019-03-27T19:26:36.229Z,6.58
2019-03-27T19:29:06.102Z,5.62
2019-03-27T19:31:36.059Z,5.28
2019-03-27T19:34:05.904Z,4.37
2019-03-27T19:36:35.798Z,5.05
2019-03-27T19:39:07.660Z,6.90
2019-03-27T19:41:40.750Z,5.70
2019-03-27T19:44:10.691Z,7.15
2019-03-27T19:46:40.444Z,5.67
2019-03-27T19:49:11.301Z,6.95
2019-03-27T19:51:41.212Z,7.62
2019-03-27T19:54:11.200Z,6.75
2019-03-27T19:56:41.283Z,5.85
2019-03-27T19:59:11.435Z,5.97
2019-03-27T20:01:42.051Z,7.55
2019-03-27T20:04:11.919Z,4.83
2019-03-27T20:06:41.767Z,5.78
2019-03-27T20:09:12.517Z,5.22
2019-03-27T20:11:42.429Z,5.62
2019-03-27T20:14:12.348Z,4.85
2019-03-27T20:16:42.167Z,7.53
2019-03-27T20:19:11.741Z,6.40
2019-03-27T20:21:41.295Z,6.92
2019-03-27T20:24:11.063Z,6.55
2019-03-27T20:26:40.623Z,8.23
2019-03-27T20:29:10.375Z,7.92
2019-03-27T20:31:40.088Z,6.15
2019-03-27T20:34:09.942Z,4.97
2019-03-27T20:36:39.871Z,6.62
2019-03-27T20:39:10.677Z,6.28
2019-03-27T20:41:41.015Z,8.65
2019-03-27T20:44:10.764Z,6.87
2019-03-27T20:46:40.595Z,8.20
2019-03-27T20:49:10.397Z,5.78
2019-03-27T20:51:40.437Z,7.65
2019-03-27T20:54:14.475Z,6.78
2019-03-27T20:56:45.228Z,7.60
2019-03-27T20:59:18.602Z,7.78
2019-03-27T21:01:48.848Z,8.18
2019-03-27T21:06:47.530Z,9.10
2019-03-27T21:09:19.266Z,9.63
2019-03-27T21:11:49.840Z,10.35
2019-03-27T21:14:19.847Z,9.43
2019-03-27T21:16:50.734Z,9.98
2019-03-27T21:19:21.006Z,9.93
2019-03-27T21:24:22.693Z,11.53
2019-03-27T21:26:55.468Z,9.90
2019-03-27T21:29:30.903Z,11.45
2019-03-27T21:32:01.386Z,11.48
2019-03-27T21:34:32.378Z,12.63
2019-03-27T21:39:31.178Z,11.48
2019-03-27T21:44:30.744Z,13.58
2019-03-27T21:47:01.056Z,13.20
2019-03-27T21:52:00.346Z,14.87
2019-03-27T21:54:31.794Z,14.38
2019-03-27T21:57:01.932Z,14.33
2019-03-27T21:59:32.239Z,14.60
2019-03-27T22:02:02.933Z,14.40
2019-03-27T22:04:32.956Z,16.67
2019-03-27T22:07:02.997Z,16.82
2019-03-27T22:09:33.341Z,16.27
2019-03-27T22:14:33.020Z,16.10
2019-03-27T22:17:03.320Z,15.75
2019-03-27T22:22:04.773Z,14.05
2019-03-27T22:24:34.727Z,14.45
2019-03-27T22:27:04.737Z,15.58
2019-03-27T22:29:34.691Z,16.20
2019-03-27T22:32:04.723Z,13.95
2019-03-27T22:34:34.789Z,12.95
2019-03-27T22:37:05.092Z,14.75
2019-03-27T22:39:35.038Z,17.25
2019-03-27T22:42:05.265Z,14.95
2019-03-27T22:47:03.844Z,16.97
2019-03-27T22:49:33.849Z,14.20
2019-03-27T22:52:03.876Z,15.65
2019-03-27T22:54:34.064Z,14.35
2019-03-27T22:59:32.820Z,13.18
2019-03-27T23:02:02.683Z,10.58
2019-03-27T23:04:33.214Z,13.13
2019-03-27T23:07:04.427Z,14.40
2019-03-27T23:09:35.058Z,14.15
2019-03-27T23:12:07.940Z,10.75
2019-03-27T23:14:38.083Z,12.70
2019-03-27T23:17:08.555Z,12.15
2019-03-27T23:19:38.405Z,13.00
2019-03-27T23:22:08.371Z,13.22
2019-03-27T23:24:38.465Z,10.43
2019-03-27T23:27:08.791Z,8.93
2019-03-27T23:29:38.939Z,11.08
2019-03-27T23:34:39.028Z,11.78
2019-03-27T23:37:10.527Z,12.33
2019-03-27T23:39:40.519Z,12.63
2019-03-27T23:42:10.469Z,10.95
2019-03-27T23:44:40.584Z,12.30
2019-03-27T23:47:10.713Z,10.08
2019-03-27T23:49:40.995Z,12.68
2019-03-27T23:54:39.569Z,12.00
2019-03-27T23:57:09.533Z,9.88
2019-03-27T23:59:39.776Z,11.25
